METAR Data
IDs: Format: Raw Decoded Include TAF

Data at: 2121 UTC 02 Aug 2021

EDDP 022050Z 24008KT CAVOK 16/14 Q1014 NOSIG